Autoridad de Aeronautica Civil de Panamá***
**


metar




ESTACIONES DESCRIPCION
MPTO (M) 251900Z 16007KT 9999 SCT018 SCT090 28/24 Q1009 NOSIG=  
MPMG (M) 251800Z 17007KT 9999 SCT020 SCT090 29/25 Q1008 NOSIG=  
MPPA (M) 251900Z 20009KT(E) 9999 FEW018 30/25 Q1007  
MPDA (M) 252000Z 17009KT 9000 VCSH FEW016CB 29/24 Q1007 RMK PCPN NW-NE CB NE/S=  
MPSM (M) 252000Z 18006KT 9999 FEW030 30/25 Q1007=  
MPBO (M) 252000Z 08009KT 9999 FEW020TCU SCT090 31/27 Q1006 RMK TCU S-SW=  
MPCH (M) 241600Z VRB05KT 9999 FEW020 29/24 Q1012=  
MPEJ (M) 251900Z 18008KT 9999 FEW020 31/// Q1008=  
MPCE (M) 251900Z 00000KT 9999 SCT015 BKN080 32/25 Q1006 RMK PCPN DSTN SW=  
MPPN (M) 251900Z NIL=  
MPSA (M) 251900Z 27009KT 8000 VCSH SCT015TCU BKN080 26/23 Q1008 RMK TCU ALQDS PCPN W-NE=  


 

 

  CLIMATICA  

 MPTO 

24 DE SEPTIEMBRE 2022

 

PCPN (mm)

T° MAX

T° MIN

VIENTO MAX (KT)

HORA

VIENTO PREDOM (KT)

8.6

30.1

23.6

25011KT

2000Z

VRB03KT

CLIMÁTICA

MPMG

24 DE SEPTIEMBRE 2022

PCPN (mm)

T° MAX

T° MIN

VIENTO MAX (KT)

HORA

VIENTO PREDOM (KT)

 

11.0

30.1

23.2

25010KT

1900Z

S04KT

 



Contador: 101926